Valle Toledo, Valles Caldera, New Mexico Weather observations

Data are for 10 minute period ending at time listed.
 Day   Time   Solar   Ave.   Ave.  Ave.  Vector  Max.   Baro.   Total    
  of    of     Rad.   Air    Rel.  Wind   Wind   Wind  Press.  Precip.   
Year   Day            Temp.  Hum.  Speed  Dir.   Gust                    
2026   (MST)  Kw/m2    F      %     mph   deg.    mph    mb.     in.     
-------------------------------------------------------------------------
 123   12:10   1.11   55.9    23    5.0    38    12.5   731.7    0.00 
 123   12:20   1.16   56.5    25    7.0   353    12.5   731.5    0.00 
 123   12:30   0.63   54.8    29    5.8   330    13.1   731.5    0.00 
 123   12:40   1.20   56.2    28    0.0     0     0.0   731.7    0.00 
 123   12:50   1.12   56.4    28    0.0     0     0.0   731.6    0.00 
 123   13:00   0.66   55.4    29    0.0     0     0.0   731.6    0.00 
 123   13:10   0.39   54.6    28    0.0     0     0.0   731.6    0.00 
 123   13:20   0.60   54.9    26    0.0   350     1.8   731.6    0.00 
 123   13:30   0.32   54.6    25    0.0     0     0.0   731.5    0.00 
 123   13:40   0.37   54.6    25    0.0     0     0.0   731.4    0.00 
 123   13:50   0.47   55.3    25    0.0     0     0.0   731.3    0.00 
 123   14:00   0.28   56.1    22    0.0     0     0.0   731.2    0.00 
 123   14:10   0.23   55.5    23    0.0     0     0.0   731.0    0.00 
 123   14:20   0.28   55.0    25    0.0     0     0.0   730.9    0.00 
 123   14:30   0.33   55.0    23    0.0     0     0.0   730.8    0.00 
 123   14:40   0.44   56.5    19    0.0     0     0.0   730.5    0.00 
 123   14:50   0.40   56.1    22    0.0     0     0.0   730.4    0.00 
 123   15:00   0.37   56.2    21    0.0     0     0.0   730.3    0.00 
 123   15:10   0.30   54.9    22    0.0     0     0.0   730.2    0.00 
 123   15:20   0.77   57.8    21    1.2    62    11.9   730.0    0.00 
 123   15:30   0.79   59.7    16    4.5    73    14.9   729.9    0.00 
 123   15:40   0.71   59.5    16    3.5    89    15.5   729.8    0.00 
 123   15:50   0.64   59.3    16    7.8    74    17.3   729.8    0.00 
 123   16:00   0.60   58.7    16    5.7    79    16.1   729.8    0.00 
 123   16:10   0.45   58.5    15    8.6   116    15.5   729.9    0.00 
 123   16:20   0.51   58.2    16    3.6   129    10.2   729.8    0.00 
 123   16:30   0.29   57.1    16    5.1    94    14.3   729.7    0.00 
 123   16:40   0.41   58.0    15    7.5    83    16.1   729.3    0.00 
 123   16:50   0.28   56.6    16    6.6    80    14.9   729.2    0.00 
 123   17:00   0.30   56.6    17    4.6   102     9.6   729.2    0.00 
 123   17:10   0.30   58.4    16    2.0    74    10.8   729.2    0.00 
 123   17:20   0.20   56.7    16    4.5   131    13.1   729.2    0.00 
 123   17:30   0.21   57.2    15    4.8   113    11.3   729.2    0.00 
 123   17:40   0.20   58.4    14    5.3   111    14.3   729.5    0.00 
 123   17:50   0.18   56.4    14    7.1    86    13.7   729.6    0.00 
 123   18:00   0.15   56.4    14    2.8    71    10.2   729.6    0.00 
 123   18:10   0.11   56.7    15    3.6    79    11.3   729.6    0.00 
 123   18:20   0.11   55.3    15    3.4    79    11.3   729.6    0.00 
 123   18:30   0.07   54.1    16    4.0    81    10.2   729.5    0.00 
 123   18:40   0.01   52.9    17    3.9   126     8.4   729.2    0.00 
 123   18:50   0.01   51.7    18    1.0   144     5.4   729.3    0.00 
 123   19:00   0.00   50.3    20    0.0     0     0.0   729.4    0.00 
 123   19:10   0.00   49.4    20    0.0     0     0.0   729.5    0.00 
 123   19:20   0.00   48.6    22    0.0     0     0.0   729.6    0.00 
 123   19:30   0.00   47.2    25    0.0     0     0.0   729.6    0.00 
 123   19:40   0.00   46.7    26    0.0     0     0.0   729.6    0.00 
 123   19:50   0.00   45.9    27    0.0     0     0.0   729.7    0.00 
 123   20:00   0.00   45.2    28    0.0   205     1.2   729.9    0.00 
 123   20:10   0.00   44.7    28    0.0     0     0.0   730.0    0.00 
 123   20:20   0.00   45.1    28    0.0     0     0.0   730.0    0.00 
 123   20:30   0.00   45.2    30    0.0     0     0.0   730.1    0.00 
 123   20:40   0.00   43.9    34    0.0     0     0.0   730.0    0.00 
 123   20:50   0.00   43.2    37    0.0     0     0.0   730.0    0.00 
 123   21:00   0.00   42.8    40    0.0     0     0.0   730.0    0.00 
 123   21:10   0.00   42.5    43    0.0     0     0.0   729.9    0.00 
 123   21:20   0.00   42.4    44    0.0     0     0.0   729.9    0.00 
 123   21:30   0.00   42.9    45    0.0     0     0.0   730.1    0.00 
 123   21:40   0.00   41.8    48    0.0     0     0.0   730.1    0.00 
 123   21:50   0.00   41.8    50    0.0     0     0.0   730.1    0.00 
 123   22:00   0.00   41.4    52    0.0     0     0.0   730.1    0.00 
 123   22:10   0.00   41.3    55    0.0     0     0.0   730.0    0.00 
 123   22:20   0.00   41.3    56    0.0     0     0.0   729.9    0.00 
 123   22:30   0.00   40.9    58    0.0     0     0.0   730.0    0.00 
 123   22:40   0.00   40.5    60    0.0     0     0.0   730.0    0.00 
 123   22:50   0.00   40.6    61    0.0     0     0.0   730.0    0.00 
 123   23:00   0.00   40.9    62    0.0     0     0.0   729.9    0.00 
 123   23:10   0.00   41.9    62    0.0     0     0.0   729.7    0.00 
 123   23:20   0.00   41.3    62    0.0     0     0.0   729.5    0.00 
 123   23:30   0.00   41.1    59    0.0     0     0.0   729.4    0.00 
 123   23:40   0.00   40.0    60    0.0     0     0.0   729.3    0.00 
 123   23:50   0.00   39.4    59    0.0     0     0.0   729.2    0.00 
 124    0:00   0.00   38.8    59    0.0     0     0.0   729.3    0.00 
 124    0:10   0.00   38.8    59    0.0     0     0.0   729.5    0.00 
 124    0:20   0.00   39.2    60    0.0     0     0.0   729.6    0.00 
 124    0:30   0.00   39.5    60    0.0     0     0.0   729.7    0.00 
 124    0:40   0.00   39.7    58    0.0     0     0.0   729.8    0.00 
 124    0:50   0.00   39.7    60    0.0     0     0.0   729.8    0.00 
 124    1:00   0.00   37.8    65    0.0     0     0.0   729.8    0.00 
 124    1:10   0.00   38.5    68    1.9   140    10.8   730.1    0.00 
 124    1:20   0.00   40.4    72    4.2   146    10.8   730.2    0.00 
 124    1:30   0.00   41.1    73    1.4   139     6.0   729.8    0.00 
 124    1:40   0.00   40.9    73    4.4   171    11.3   729.2    0.00 
 124    1:50   0.00   40.7    73    0.2   188     2.4   729.0    0.00 
 124    2:00   0.00   40.5    72    0.0     0     0.0   728.9    0.00 
 124    2:10   0.00   40.4    71    0.0     0     0.0   728.8    0.00 
 124    2:20   0.00   40.3    70    0.0     0     0.0   728.8    0.00 
 124    2:30   0.00   40.0    70    0.0     0     0.0   728.7    0.00 
 124    2:40   0.00   40.8    68    0.0     0     0.0   728.6    0.00 
 124    2:50   0.00   40.1    69    0.0     0     0.0   728.4    0.00 
 124    3:00   0.00   39.5    70    0.0     0     0.0   728.4    0.00 
 124    3:10   0.00   39.8    67    0.0     0     0.0   728.4    0.00 
 124    3:20   0.00   39.8    67    0.0     0     0.0   728.4    0.00 
 124    3:30   0.00   39.7    65    0.0     0     0.0   728.3    0.00 
 124    3:40   0.00   39.6    65    0.0     0     0.0   728.4    0.00 
 124    3:50   0.00   39.1    67    0.0     0     0.0   728.4    0.00 
 124    4:00   0.00   38.8    67    0.0     0     0.0   728.4    0.00 
 124    4:10   0.00   38.4    68    0.0     0     0.0   728.4    0.00 
 124    4:20   0.00   38.2    68    0.0     0     0.0   728.5    0.00 
 124    4:30   0.00   38.5    67    0.0     0     0.0   728.6    0.00 
 124    4:40   0.00   38.9    66    0.0     0     0.0   728.4    0.00 
 124    4:50   0.00   39.2    65    0.0     0     0.0   728.3    0.00 
 124    5:00   0.00   39.4    65    0.0     0     0.0   728.5    0.00 
 124    5:10   0.00   39.3    65    0.0     0     0.0   728.6    0.00 
 124    5:20   0.00   39.1    66    0.0     0     0.0   728.4    0.00 
 124    5:30   0.01   39.0    66    0.0     0     0.0   728.7    0.00 
 124    5:40   0.01   39.2    65    0.0     0     0.0   728.8    0.00 
 124    5:50   0.02   41.0    60    0.0     0     0.0   728.8    0.00 
 124    6:00   0.03   42.3    57    0.0     0     0.0   728.9    0.00 
 124    6:10   0.04   42.8    57    0.0     0     0.0   728.9    0.00 
 124    6:20   0.05   42.7    58    0.0     0     0.0   729.1    0.00 
 124    6:30   0.07   42.3    60    0.0     0     0.0   729.2    0.00 
 124    6:40   0.08   41.7    62    0.0     0     0.0   729.2    0.00 
 124    6:50   0.09   42.1    60    0.0     0     0.0   729.2    0.00 
 124    7:00   0.10   43.0    57    0.0     0     0.0   729.2    0.00 
 124    7:10   0.12   43.0    58    0.0     0     0.0   729.3    0.00 
 124    7:20   0.16   43.0    57    0.1    95     3.6   729.4    0.00 
 124    7:30   0.18   43.3    56    1.9    99     7.8   729.4    0.00 
 124    7:40   0.20   43.5    55    0.0     0     0.0   729.4    0.00 
 124    7:50   0.27   43.6    56    0.0     0     0.0   729.3    0.00 
 124    8:00   0.27   43.9    56    0.0     0     0.0   729.2    0.00 
 124    8:10   0.34   44.2    56    0.0     0     0.0   729.3    0.00 
 124    8:20   0.39   45.1    54    0.0     0     0.0   729.3    0.00 
 124    8:30   0.41   45.8    52    0.0     0     0.0   729.2    0.00 
 124    8:40   0.51   47.1    48    0.0     0     0.0   728.9    0.00 
 124    8:50   0.50   47.6    45    0.1    75     9.6   728.9    0.00 
 124    9:00   0.53   48.0    44    0.0     0     0.0   728.8    0.00 
 124    9:10   0.49   48.8    42    1.2    73    13.7   728.8    0.00 
 124    9:20   0.53   49.0    40    6.1    92    11.3   728.8    0.00 
 124    9:30   0.51   48.9    40    2.2    62    13.1   728.8    0.00 
 124    9:40   0.53   49.2    38    0.0     0     0.0   729.0    0.00 
 124    9:50   0.55   49.5    37    0.0     0     0.0   729.0    0.00 
 124   10:00   0.66   50.0    36    4.2    66    11.3   729.0    0.00 
 124   10:10   0.77   50.6    34    6.2    67    13.1   729.1    0.00 
 124   10:20   0.75   51.5    32    6.0    69    12.5   729.0    0.00 
 124   10:30   0.73   51.2    30    3.6    40    13.1   729.1    0.00 
 124   10:40   0.76   52.1    30    6.9    68    14.9   729.1    0.00 
 124   10:50   0.70   51.8    28    2.5    70    12.5   729.1    0.00 
 124   11:00   0.85   52.2    27    7.9    57    12.5   728.8    0.00 
 124   11:10   0.63   52.4    28    7.0    81    13.1   728.8    0.00 
 124   11:20   0.71   53.0    26    3.0   102    13.1   728.8    0.00 
 124   11:30   0.72   53.5    26    2.5    82    14.3   728.6    0.00 
 124   11:40   0.68   53.6    25    3.4    54    14.9   728.6    0.00 
 124   11:50   0.66   53.4    25    4.8    87    11.3   728.6    0.00 
 124   12:00   0.69   53.4    23    7.1    84    15.5   728.7    0.00 

Return to Valle Toledo, Valles Caldera graphs page.


Western Regional Climate Center,wrcc@dri.edu